createdAt,value
2023-01-17T00:02:10.671Z,11.52
2023-01-17T00:05:15.586Z,12.82
2023-01-17T00:08:20.003Z,13.38
2023-01-17T00:11:06.268Z,13.88
2023-01-17T00:13:52.053Z,15.30
2023-01-17T00:16:37.886Z,14.32
2023-01-17T00:19:42.142Z,12.93
2023-01-17T00:22:48.236Z,13.70
2023-01-17T00:25:53.217Z,12.90
2023-01-17T00:28:40.830Z,12.48
2023-01-17T00:31:26.668Z,12.07
2023-01-17T00:34:12.144Z,11.00
2023-01-17T00:36:57.962Z,11.75
2023-01-17T00:39:43.714Z,11.50
2023-01-17T00:42:29.966Z,11.95
2023-01-17T00:45:34.689Z,10.85
2023-01-17T00:48:39.179Z,10.98
2023-01-17T00:51:44.641Z,10.45
2023-01-17T00:54:49.174Z,10.98
2023-01-17T00:57:53.767Z,10.05
2023-01-17T01:00:58.579Z,11.50
2023-01-17T01:04:03.024Z,10.30
2023-01-17T01:07:07.669Z,8.88
2023-01-17T01:10:12.393Z,7.40
2023-01-17T01:13:17.286Z,7.50
2023-01-17T01:16:23.123Z,6.88
2023-01-17T01:19:27.819Z,6.60
2023-01-17T01:22:32.681Z,7.03
2023-01-17T01:25:37.439Z,6.20
2023-01-17T01:28:42.007Z,6.82
2023-01-17T01:31:46.896Z,6.50
2023-01-17T01:34:32.989Z,6.95
2023-01-17T01:37:18.685Z,5.68
2023-01-17T01:40:04.944Z,7.25
2023-01-17T01:42:59.908Z,8.30
2023-01-17T01:45:51.723Z,6.47
2023-01-17T01:48:43.751Z,7.25
2023-01-17T01:51:33.776Z,7.22
2023-01-17T01:54:28.779Z,7.18
2023-01-17T01:57:17.742Z,6.80
2023-01-17T02:00:16.948Z,7.72
2023-01-17T02:03:06.913Z,6.35
2023-01-17T02:05:53.145Z,7.22
2023-01-17T02:08:39.585Z,7.10
2023-01-17T02:11:25.768Z,7.75
2023-01-17T02:14:16.603Z,6.50
2023-01-17T02:17:20.574Z,4.65
2023-01-17T02:20:21.752Z,4.20
2023-01-17T02:23:23.148Z,4.90
2023-01-17T02:26:44.838Z,4.03
2023-01-17T02:29:33.751Z,5.25
2023-01-17T02:32:37.264Z,2.80
2023-01-17T02:35:34.390Z,2.00
2023-01-17T02:38:48.467Z,2.25
2023-01-17T02:41:36.522Z,3.17
2023-01-17T02:44:22.825Z,8.70
2023-01-17T02:47:21.065Z,17.13
2023-01-17T02:50:10.445Z,13.25
2023-01-17T02:52:59.389Z,11.98
2023-01-17T02:55:54.240Z,10.25
2023-01-17T02:59:07.007Z,7.88
2023-01-17T03:02:04.553Z,6.25
2023-01-17T03:05:02.574Z,6.40
2023-01-17T03:07:49.633Z,5.88
2023-01-17T03:10:36.367Z,5.60
2023-01-17T03:13:22.726Z,5.00
2023-01-17T03:16:13.490Z,5.38
2023-01-17T03:18:59.573Z,4.53
2023-01-17T03:21:45.425Z,4.43
2023-01-17T03:24:31.286Z,4.43
2023-01-17T03:27:17.083Z,4.57
2023-01-17T03:30:03.524Z,4.70
2023-01-17T03:32:49.984Z,4.65
2023-01-17T03:35:36.182Z,8.05
2023-01-17T03:38:22.361Z,7.75
2023-01-17T03:41:08.824Z,8.20
2023-01-17T03:43:54.633Z,8.13
2023-01-17T03:46:40.558Z,6.75
2023-01-17T03:49:26.579Z,6.03
2023-01-17T03:52:12.604Z,4.82
2023-01-17T03:54:58.396Z,5.38
2023-01-17T03:57:44.228Z,5.65
2023-01-17T04:00:30.161Z,4.80
2023-01-17T04:03:15.857Z,5.80
2023-01-17T04:06:01.786Z,6.38
2023-01-17T04:08:47.713Z,4.90
2023-01-17T04:11:33.306Z,4.55
2023-01-17T04:14:19.225Z,3.95
2023-01-17T04:17:05.004Z,3.30
2023-01-17T04:19:50.988Z,4.40
2023-01-17T04:22:36.838Z,2.70
2023-01-17T04:25:22.553Z,2.63
2023-01-17T04:28:08.743Z,2.13
2023-01-17T04:30:58.137Z,2.60
2023-01-17T04:33:44.313Z,3.25
2023-01-17T04:36:30.434Z,2.78
2023-01-17T04:39:16.313Z,2.80
2023-01-17T04:42:03.022Z,2.75
2023-01-17T04:44:49.174Z,2.75
2023-01-17T04:47:35.034Z,3.00
2023-01-17T04:50:20.837Z,3.25
2023-01-17T04:53:07.159Z,4.00
2023-01-17T04:55:53.023Z,5.95
2023-01-17T04:58:38.928Z,12.35
2023-01-17T05:01:25.078Z,7.93
2023-01-17T05:04:11.344Z,7.88
2023-01-17T05:06:57.146Z,6.30
2023-01-17T05:09:43.941Z,7.70
2023-01-17T05:12:30.122Z,8.23
2023-01-17T05:15:16.278Z,8.07
2023-01-17T05:18:02.000Z,10.48
2023-01-17T05:20:47.948Z,10.00
2023-01-17T05:23:33.973Z,7.22
2023-01-17T05:26:19.780Z,7.28
2023-01-17T05:29:05.706Z,7.28
2023-01-17T05:31:51.510Z,6.75
2023-01-17T05:34:37.234Z,8.85
2023-01-17T05:37:23.129Z,10.25
2023-01-17T05:40:09.900Z,11.00
2023-01-17T05:42:57.652Z,12.18
2023-01-17T05:45:43.949Z,11.32
2023-01-17T05:48:29.666Z,12.38
2023-01-17T05:51:15.718Z,12.98
2023-01-17T05:54:01.526Z,11.38
2023-01-17T05:56:47.343Z,11.35
2023-01-17T05:59:37.509Z,10.68
2023-01-17T06:02:24.041Z,8.43
2023-01-17T06:05:10.052Z,9.40
2023-01-17T06:07:56.732Z,7.95
2023-01-17T06:10:42.600Z,8.35
2023-01-17T06:13:28.472Z,7.68
2023-01-17T06:16:14.325Z,5.53
2023-01-17T06:19:00.102Z,4.20
2023-01-17T06:21:45.929Z,3.75
2023-01-17T06:24:31.988Z,4.90
2023-01-17T06:27:18.223Z,5.63
2023-01-17T06:30:04.390Z,4.40
2023-01-17T06:32:55.145Z,4.70
2023-01-17T06:35:48.393Z,4.50
2023-01-17T06:38:34.837Z,3.85
2023-01-17T06:41:20.725Z,4.70
2023-01-17T06:44:07.875Z,3.60
2023-01-17T06:46:54.422Z,4.45
2023-01-17T06:49:40.396Z,4.97
2023-01-17T06:52:26.294Z,5.22
2023-01-17T06:55:11.986Z,6.30
2023-01-17T06:57:59.624Z,4.80
2023-01-17T07:00:45.908Z,5.35
2023-01-17T07:03:31.692Z,4.43
2023-01-17T07:06:17.396Z,4.35
2023-01-17T07:09:04.449Z,4.30
2023-01-17T07:11:51.906Z,3.88
2023-01-17T07:14:37.686Z,4.72
2023-01-17T07:17:23.652Z,4.80
2023-01-17T07:20:10.057Z,5.85
2023-01-17T07:22:55.951Z,7.20
2023-01-17T07:25:42.094Z,7.50
2023-01-17T07:28:28.493Z,8.70
2023-01-17T07:31:14.451Z,9.38
2023-01-17T07:34:00.740Z,11.57
2023-01-17T07:36:48.607Z,8.43
2023-01-17T07:39:34.685Z,7.05
2023-01-17T07:42:23.839Z,12.52
2023-01-17T07:45:11.660Z,24.63
2023-01-17T07:47:58.030Z,8.98
2023-01-17T07:50:44.499Z,6.13
2023-01-17T07:53:30.994Z,6.68
2023-01-17T07:56:17.510Z,7.35
2023-01-17T07:59:03.516Z,4.53
2023-01-17T08:01:49.667Z,7.40
2023-01-17T08:04:35.363Z,6.75
2023-01-17T08:07:21.444Z,6.90
2023-01-17T08:10:08.828Z,10.38
2023-01-17T08:12:55.440Z,10.75
2023-01-17T08:15:41.377Z,12.98
2023-01-17T08:18:27.101Z,10.27
2023-01-17T08:21:15.036Z,10.38
2023-01-17T08:24:00.920Z,9.45
2023-01-17T08:26:46.847Z,10.60
2023-01-17T08:29:32.807Z,9.18
2023-01-17T08:32:19.946Z,8.45
2023-01-17T08:35:06.202Z,5.75
2023-01-17T08:37:54.761Z,7.43
2023-01-17T08:40:40.544Z,7.32
2023-01-17T08:43:26.189Z,6.32
2023-01-17T08:46:12.105Z,14.98
2023-01-17T08:48:59.178Z,11.32
2023-01-17T08:51:45.427Z,8.05
2023-01-17T08:54:31.320Z,9.18
2023-01-17T08:57:17.060Z,7.93
2023-01-17T09:00:03.141Z,7.80
2023-01-17T09:02:52.157Z,4.60
2023-01-17T09:05:38.025Z,5.13
2023-01-17T09:08:24.135Z,5.57
2023-01-17T09:11:12.172Z,6.22
2023-01-17T09:13:58.263Z,8.30
2023-01-17T09:16:43.997Z,7.35
2023-01-17T09:19:29.956Z,9.02
2023-01-17T09:22:15.908Z,11.48
2023-01-17T09:25:01.754Z,9.52
2023-01-17T09:27:47.661Z,7.72
2023-01-17T09:30:33.556Z,10.48
2023-01-17T09:33:20.042Z,6.68
2023-01-17T09:36:06.193Z,7.07
2023-01-17T09:38:59.064Z,7.63
2023-01-17T09:41:54.556Z,7.50
2023-01-17T09:44:54.014Z,7.10
2023-01-17T09:47:53.745Z,8.45
2023-01-17T09:50:44.743Z,6.57
2023-01-17T09:53:33.938Z,8.32
2023-01-17T09:56:25.074Z,7.82
2023-01-17T09:59:21.645Z,8.00
2023-01-17T10:02:14.291Z,8.25
2023-01-17T10:05:11.025Z,12.20
2023-01-17T10:08:57.562Z,10.63
2023-01-17T10:12:18.849Z,6.72
2023-01-17T10:15:56.460Z,4.28
2023-01-17T10:18:51.760Z,3.70
2023-01-17T10:21:50.324Z,6.75
2023-01-17T10:24:58.004Z,5.18
2023-01-17T10:27:48.710Z,6.13
2023-01-17T10:30:39.279Z,6.97
2023-01-17T10:33:28.937Z,6.43
2023-01-17T10:36:22.812Z,7.30
2023-01-17T10:39:34.919Z,5.63
2023-01-17T10:42:29.249Z,6.28
2023-01-17T10:45:28.356Z,7.10
2023-01-17T10:48:29.501Z,6.38
2023-01-17T10:51:21.940Z,6.18
2023-01-17T10:54:30.942Z,6.18
2023-01-17T10:57:21.055Z,6.20
2023-01-17T11:00:28.678Z,7.47
2023-01-17T11:03:17.411Z,8.18
2023-01-17T11:06:26.827Z,5.78
2023-01-17T11:09:14.060Z,6.00
2023-01-17T11:12:00.260Z,15.60
2023-01-17T11:15:01.443Z,10.70
2023-01-17T11:18:07.498Z,8.50
2023-01-17T11:20:54.463Z,6.90
2023-01-17T11:23:42.367Z,6.22
2023-01-17T11:26:33.072Z,7.70
2023-01-17T11:29:31.104Z,6.07
2023-01-17T11:32:32.771Z,6.43
2023-01-17T11:35:30.279Z,4.88
2023-01-17T11:38:21.776Z,4.88
2023-01-17T11:41:28.275Z,7.25
2023-01-17T11:44:27.517Z,5.53
2023-01-17T11:47:13.648Z,4.95
2023-01-17T11:49:59.586Z,3.85
2023-01-17T11:52:45.387Z,4.03
2023-01-17T11:55:31.178Z,4.13
2023-01-17T11:58:17.184Z,5.65
2023-01-17T12:01:42.289Z,5.28
2023-01-17T12:04:43.050Z,6.03
2023-01-17T12:07:45.152Z,7.32
2023-01-17T12:10:33.614Z,5.78
2023-01-17T12:13:44.600Z,4.82
2023-01-17T12:16:39.568Z,5.45
2023-01-17T12:19:28.782Z,6.00
2023-01-17T12:22:34.095Z,7.18
2023-01-17T12:25:37.162Z,6.90
2023-01-17T12:31:40.074Z,7.80
2023-01-17T12:34:40.306Z,5.95
2023-01-17T12:37:26.477Z,6.18
2023-01-17T12:40:18.776Z,5.97
2023-01-17T12:43:29.646Z,6.00
2023-01-17T12:46:27.343Z,5.95
2023-01-17T12:49:32.690Z,4.18
2023-01-17T12:52:36.749Z,3.42
2023-01-17T12:55:49.878Z,4.18
2023-01-17T12:58:47.764Z,4.60
2023-01-17T13:01:39.823Z,3.58
2023-01-17T13:04:58.051Z,2.88
2023-01-17T13:08:03.501Z,3.70
2023-01-17T13:10:54.501Z,3.58
2023-01-17T13:13:41.356Z,3.50
2023-01-17T13:16:33.052Z,4.55
2023-01-17T13:19:21.785Z,3.40
2023-01-17T13:22:09.505Z,3.65
2023-01-17T13:25:31.996Z,4.93
2023-01-17T13:28:34.307Z,3.30
2023-01-17T13:31:24.753Z,3.00
2023-01-17T13:34:34.980Z,2.53
2023-01-17T13:37:42.600Z,2.80
2023-01-17T13:40:53.753Z,3.05
2023-01-17T13:44:02.976Z,3.85
2023-01-17T13:46:53.551Z,4.03
2023-01-17T13:49:39.414Z,2.60
2023-01-17T13:52:25.239Z,5.50
2023-01-17T13:55:43.768Z,5.28
2023-01-17T13:58:34.062Z,3.75
2023-01-17T14:01:43.495Z,4.82
2023-01-17T14:05:09.585Z,3.67
2023-01-17T14:07:59.369Z,4.00
2023-01-17T14:10:48.231Z,3.20
2023-01-17T14:13:35.713Z,3.22
2023-01-17T14:16:21.605Z,4.95
2023-01-17T14:19:25.369Z,3.40
2023-01-17T14:22:55.210Z,7.03
2023-01-17T14:25:41.325Z,4.85
2023-01-17T14:28:27.192Z,4.53
2023-01-17T14:31:15.303Z,5.90
2023-01-17T14:34:13.033Z,4.97
2023-01-17T14:37:44.326Z,5.32
2023-01-17T14:40:35.834Z,5.28
2023-01-17T14:43:24.135Z,4.15
2023-01-17T14:46:29.126Z,5.00
2023-01-17T14:49:24.266Z,6.35
2023-01-17T14:52:15.426Z,9.00
2023-01-17T14:55:14.852Z,8.15
2023-01-17T14:58:01.160Z,8.00
2023-01-17T15:00:50.088Z,7.45
2023-01-17T15:03:44.443Z,7.03
2023-01-17T15:06:39.071Z,7.80
2023-01-17T15:09:27.555Z,8.20
2023-01-17T15:12:16.937Z,7.85
2023-01-17T15:15:03.280Z,9.30
2023-01-17T15:17:49.557Z,9.80
2023-01-17T15:20:36.373Z,5.95
2023-01-17T15:23:23.508Z,6.35
2023-01-17T15:26:13.874Z,5.63
2023-01-17T15:29:06.371Z,6.53
2023-01-17T15:31:54.528Z,6.22
2023-01-17T15:34:44.779Z,7.60
2023-01-17T15:37:36.749Z,7.32
2023-01-17T15:40:24.847Z,7.40
2023-01-17T15:43:19.411Z,8.02
2023-01-17T15:46:05.337Z,7.90
2023-01-17T15:48:51.925Z,5.68
2023-01-17T15:51:39.082Z,7.72
2023-01-17T15:54:37.112Z,6.13
2023-01-17T15:57:29.790Z,7.07
2023-01-17T16:03:24.858Z,7.85
2023-01-17T16:06:29.559Z,8.05
2023-01-17T16:09:22.661Z,7.25
2023-01-17T16:15:11.332Z,6.32
2023-01-17T16:18:06.837Z,10.45
2023-01-17T16:21:00.923Z,8.32
2023-01-17T16:23:49.975Z,7.88
2023-01-17T16:26:35.759Z,7.68
2023-01-17T16:29:21.490Z,4.72
2023-01-17T16:32:08.879Z,4.20
2023-01-17T16:34:54.922Z,3.20
2023-01-17T16:37:41.925Z,4.10
2023-01-17T16:40:30.478Z,3.58
2023-01-17T16:43:17.934Z,4.78
2023-01-17T16:46:04.049Z,3.33
2023-01-17T16:48:49.827Z,3.22
2023-01-17T16:51:35.768Z,4.05
2023-01-17T16:54:21.680Z,3.70
2023-01-17T16:57:07.660Z,4.07
2023-01-17T16:59:53.700Z,3.50
2023-01-17T17:02:40.858Z,3.25
2023-01-17T17:05:26.857Z,3.45
2023-01-17T17:08:15.351Z,3.25
2023-01-17T17:11:13.164Z,4.50
2023-01-17T17:13:59.156Z,3.67
2023-01-17T17:16:45.388Z,4.65
2023-01-17T17:19:31.372Z,3.10
2023-01-17T17:22:17.501Z,3.58
2023-01-17T17:25:03.958Z,4.40
2023-01-17T17:27:50.448Z,3.78
2023-01-17T17:30:36.499Z,3.35
2023-01-17T17:33:22.279Z,3.42
2023-01-17T17:36:10.351Z,4.43
2023-01-17T17:38:57.952Z,2.80
2023-01-17T17:41:45.639Z,2.78
2023-01-17T17:44:31.483Z,2.30
2023-01-17T17:47:17.961Z,2.45
2023-01-17T17:50:04.214Z,2.75
2023-01-17T17:52:50.432Z,3.10
2023-01-17T17:55:36.508Z,2.75
2023-01-17T17:58:29.790Z,2.67
2023-01-17T18:01:16.098Z,3.05
2023-01-17T18:04:03.241Z,3.38
2023-01-17T18:06:49.160Z,3.25
2023-01-17T18:09:35.099Z,3.70
2023-01-17T18:12:20.952Z,3.25
2023-01-17T18:15:07.187Z,3.40
2023-01-17T18:17:55.583Z,3.40
2023-01-17T18:20:41.676Z,4.38
2023-01-17T18:23:27.829Z,3.85
2023-01-17T18:26:31.489Z,4.95
2023-01-17T18:29:19.648Z,3.70
2023-01-17T18:32:05.764Z,4.55
2023-01-17T18:34:51.558Z,4.88
2023-01-17T18:37:37.393Z,4.10
2023-01-17T18:40:23.455Z,4.50
2023-01-17T18:43:09.330Z,4.30
2023-01-17T18:45:55.315Z,4.10
2023-01-17T18:48:41.738Z,4.93
2023-01-17T18:51:30.296Z,5.15
2023-01-17T18:54:17.637Z,5.20
2023-01-17T18:57:03.596Z,5.60
2023-01-17T18:59:49.549Z,6.30
2023-01-17T19:02:35.294Z,6.85
2023-01-17T19:05:21.733Z,6.15
2023-01-17T19:08:07.657Z,5.00
2023-01-17T19:10:54.711Z,4.40
2023-01-17T19:13:41.959Z,4.82
2023-01-17T19:16:30.531Z,4.28
2023-01-17T19:19:16.767Z,4.45
2023-01-17T19:22:02.757Z,4.22
2023-01-17T19:24:48.677Z,3.83
2023-01-17T19:27:34.598Z,3.20
2023-01-17T19:30:20.773Z,3.50
2023-01-17T19:33:07.209Z,4.28
2023-01-17T19:35:52.918Z,4.13
2023-01-17T19:38:39.159Z,4.05
2023-01-17T19:41:27.280Z,3.70
2023-01-17T19:44:14.132Z,3.92
2023-01-17T19:47:01.276Z,3.90
2023-01-17T19:49:47.362Z,4.00
2023-01-17T19:52:33.451Z,4.43
2023-01-17T19:55:25.631Z,4.85
2023-01-17T19:58:13.158Z,4.67
2023-01-17T20:01:16.884Z,4.82
2023-01-17T20:04:03.497Z,4.55
2023-01-17T20:06:49.635Z,4.47
2023-01-17T20:09:35.472Z,5.07
2023-01-17T20:12:21.494Z,6.55
2023-01-17T20:15:08.079Z,6.93
2023-01-17T20:17:54.440Z,5.80
2023-01-17T20:20:56.343Z,8.07
2023-01-17T20:23:44.136Z,6.43
2023-01-17T20:26:35.984Z,5.90
2023-01-17T20:29:21.827Z,5.50
2023-01-17T20:32:08.183Z,6.22
2023-01-17T20:34:54.126Z,6.13
2023-01-17T20:37:40.144Z,6.43
2023-01-17T20:40:26.344Z,5.20
2023-01-17T20:43:12.228Z,5.80
2023-01-17T20:45:58.284Z,5.75
2023-01-17T20:48:52.334Z,6.68
2023-01-17T20:51:39.854Z,6.40
2023-01-17T20:54:26.180Z,6.53
2023-01-17T20:57:12.470Z,7.32
2023-01-17T20:59:58.336Z,7.13
2023-01-17T21:02:45.370Z,6.15
2023-01-17T21:05:31.449Z,7.68
2023-01-17T21:08:18.669Z,7.05
2023-01-17T21:11:05.360Z,7.32
2023-01-17T21:13:52.008Z,7.38
2023-01-17T21:16:41.484Z,7.25
2023-01-17T21:19:29.331Z,4.88
2023-01-17T21:22:16.729Z,3.33
2023-01-17T21:25:02.632Z,3.78
2023-01-17T21:27:48.633Z,2.95
2023-01-17T21:30:34.701Z,3.00
2023-01-17T21:33:21.699Z,2.50
2023-01-17T21:36:08.566Z,2.80
2023-01-17T21:38:57.589Z,2.90
2023-01-17T21:41:45.825Z,2.45
2023-01-17T21:44:36.373Z,2.90
2023-01-17T21:47:22.524Z,2.40
2023-01-17T21:50:09.477Z,3.50
2023-01-17T21:52:55.404Z,3.28
2023-01-17T21:56:00.112Z,3.88
2023-01-17T21:58:48.262Z,4.05
2023-01-17T22:01:34.368Z,4.60
2023-01-17T22:04:20.577Z,3.90
2023-01-17T22:07:06.318Z,4.55
2023-01-17T22:09:52.208Z,3.60
2023-01-17T22:12:38.107Z,2.85
2023-01-17T22:15:24.049Z,3.40
2023-01-17T22:18:10.874Z,3.60
2023-01-17T22:20:57.491Z,3.75
2023-01-17T22:23:52.250Z,4.50
2023-01-17T22:26:39.938Z,4.85
2023-01-17T22:29:27.048Z,4.53
2023-01-17T22:32:13.054Z,5.50
2023-01-17T22:34:59.024Z,5.53
2023-01-17T22:37:44.843Z,6.28
2023-01-17T22:40:32.636Z,5.45
2023-01-17T22:43:18.854Z,4.70
2023-01-17T22:46:05.878Z,4.30
2023-01-17T22:48:52.979Z,3.75
2023-01-17T22:51:39.741Z,4.50
2023-01-17T22:54:25.596Z,4.35
2023-01-17T22:57:11.673Z,4.40
2023-01-17T22:59:57.618Z,4.70
2023-01-17T23:02:43.675Z,4.50
2023-01-17T23:05:29.622Z,4.22
2023-01-17T23:08:15.446Z,4.22
2023-01-17T23:11:20.000Z,4.85
2023-01-17T23:14:06.833Z,4.13
2023-01-17T23:17:19.462Z,3.78
2023-01-17T23:20:06.786Z,3.75
2023-01-17T23:22:52.696Z,3.80
2023-01-17T23:25:38.927Z,4.47
2023-01-17T23:28:24.906Z,3.85
2023-01-17T23:31:12.558Z,4.65
2023-01-17T23:33:58.631Z,3.88
2023-01-17T23:36:44.469Z,3.38
2023-01-17T23:39:30.616Z,3.47
2023-01-17T23:42:38.689Z,2.45
2023-01-17T23:45:24.974Z,2.10
2023-01-17T23:48:11.244Z,2.30
2023-01-17T23:50:59.261Z,2.53
2023-01-17T23:53:45.248Z,2.08
2023-01-17T23:56:31.401Z,2.42
2023-01-17T23:59:17.665Z,3.50
